sensor_id;sensor_type;location;lat;lon;timestamp;temperature;humidity
22714;DHT22;11524;50.846;4.326;2023-02-01T00:02:06;17.60;61.60
22714;DHT22;11524;50.846;4.326;2023-02-01T00:04:32;17.60;61.50
22714;DHT22;11524;50.846;4.326;2023-02-01T00:06:58;17.60;61.90
22714;DHT22;11524;50.846;4.326;2023-02-01T00:09:24;17.60;61.70
22714;DHT22;11524;50.846;4.326;2023-02-01T00:11:49;17.60;61.80
22714;DHT22;11524;50.846;4.326;2023-02-01T00:14:15;17.60;61.70
22714;DHT22;11524;50.846;4.326;2023-02-01T00:16:40;17.60;62.00
22714;DHT22;11524;50.846;4.326;2023-02-01T00:19:14;17.60;62.10
22714;DHT22;11524;50.846;4.326;2023-02-01T00:21:40;17.60;61.90
22714;DHT22;11524;50.846;4.326;2023-02-01T00:24:06;17.60;61.80
22714;DHT22;11524;50.846;4.326;2023-02-01T00:26:32;17.60;61.90
22714;DHT22;11524;50.846;4.326;2023-02-01T00:28:59;17.60;61.90
22714;DHT22;11524;50.846;4.326;2023-02-01T00:31:24;17.60;62.10
22714;DHT22;11524;50.846;4.326;2023-02-01T00:33:50;17.60;62.00
22714;DHT22;11524;50.846;4.326;2023-02-01T00:36:16;17.60;62.20
22714;DHT22;11524;50.846;4.326;2023-02-01T00:38:42;17.60;62.40
22714;DHT22;11524;50.846;4.326;2023-02-01T00:41:11;17.60;62.50
22714;DHT22;11524;50.846;4.326;2023-02-01T00:43:38;17.60;62.70
22714;DHT22;11524;50.846;4.326;2023-02-01T00:46:03;17.60;62.40
22714;DHT22;11524;50.846;4.326;2023-02-01T00:48:29;17.70;63.00
22714;DHT22;11524;50.846;4.326;2023-02-01T00:50:59;17.70;62.70
22714;DHT22;11524;50.846;4.326;2023-02-01T00:53:26;17.70;62.40
22714;DHT22;11524;50.846;4.326;2023-02-01T00:55:51;17.70;62.60
22714;DHT22;11524;50.846;4.326;2023-02-01T00:58:17;17.70;62.60
22714;DHT22;11524;50.846;4.326;2023-02-01T01:00:43;17.60;62.90
22714;DHT22;11524;50.846;4.326;2023-02-01T01:03:08;17.60;62.10
22714;DHT22;11524;50.846;4.326;2023-02-01T01:05:49;17.70;63.00
22714;DHT22;11524;50.846;4.326;2023-02-01T01:08:15;17.60;62.10
22714;DHT22;11524;50.846;4.326;2023-02-01T01:10:42;17.60;62.10
22714;DHT22;11524;50.846;4.326;2023-02-01T01:13:08;17.60;62.10
22714;DHT22;11524;50.846;4.326;2023-02-01T01:15:38;17.60;62.50
22714;DHT22;11524;50.846;4.326;2023-02-01T01:18:05;17.60;62.10
22714;DHT22;11524;50.846;4.326;2023-02-01T01:20:31;17.70;62.50
22714;DHT22;11524;50.846;4.326;2023-02-01T01:22:56;17.70;62.50
22714;DHT22;11524;50.846;4.326;2023-02-01T01:25:22;17.70;62.80
22714;DHT22;11524;50.846;4.326;2023-02-01T01:27:47;17.70;62.50
22714;DHT22;11524;50.846;4.326;2023-02-01T01:30:13;17.60;62.50
22714;DHT22;11524;50.846;4.326;2023-02-01T01:32:39;17.70;62.60
22714;DHT22;11524;50.846;4.326;2023-02-01T01:35:05;17.70;62.60
22714;DHT22;11524;50.846;4.326;2023-02-01T01:37:32;17.70;62.50
22714;DHT22;11524;50.846;4.326;2023-02-01T01:39:57;17.70;62.10
22714;DHT22;11524;50.846;4.326;2023-02-01T01:42:23;17.70;62.40
22714;DHT22;11524;50.846;4.326;2023-02-01T01:45:02;17.70;62.40
22714;DHT22;11524;50.846;4.326;2023-02-01T01:47:37;17.70;62.00
22714;DHT22;11524;50.846;4.326;2023-02-01T01:50:07;17.70;62.70
22714;DHT22;11524;50.846;4.326;2023-02-01T01:52:33;17.70;62.10
22714;DHT22;11524;50.846;4.326;2023-02-01T01:54:59;17.70;62.20
22714;DHT22;11524;50.846;4.326;2023-02-01T01:57:40;17.70;62.30
22714;DHT22;11524;50.846;4.326;2023-02-01T02:00:09;17.70;61.90
22714;DHT22;11524;50.846;4.326;2023-02-01T02:02:37;17.70;58.70
22714;DHT22;11524;50.846;4.326;2023-02-01T02:05:04;17.70;57.30
22714;DHT22;11524;50.846;4.326;2023-02-01T02:07:34;17.60;57.10
22714;DHT22;11524;50.846;4.326;2023-02-01T02:10:03;17.60;56.80
22714;DHT22;11524;50.846;4.326;2023-02-01T02:12:31;17.60;57.10
22714;DHT22;11524;50.846;4.326;2023-02-01T02:14:57;17.60;56.70
22714;DHT22;11524;50.846;4.326;2023-02-01T02:20:52;17.60;55.80
22714;DHT22;11524;50.846;4.326;2023-02-01T02:31:25;17.50;55.90
22714;DHT22;11524;50.846;4.326;2023-02-01T02:37:11;17.50;55.40
22714;DHT22;11524;50.846;4.326;2023-02-01T02:40:02;17.50;55.30
22714;DHT22;11524;50.846;4.326;2023-02-01T02:46:01;17.50;55.40
22714;DHT22;11524;50.846;4.326;2023-02-01T02:49:10;17.50;55.70
22714;DHT22;11524;50.846;4.326;2023-02-01T02:51:40;17.50;56.00
22714;DHT22;11524;50.846;4.326;2023-02-01T02:54:40;17.40;56.00
22714;DHT22;11524;50.846;4.326;2023-02-01T02:57:34;17.40;55.80
22714;DHT22;11524;50.846;4.326;2023-02-01T03:00:24;17.40;55.50
22714;DHT22;11524;50.846;4.326;2023-02-01T03:03:08;17.40;55.60
22714;DHT22;11524;50.846;4.326;2023-02-01T03:05:52;17.40;55.80
22714;DHT22;11524;50.846;4.326;2023-02-01T03:08:23;17.50;55.60
22714;DHT22;11524;50.846;4.326;2023-02-01T03:11:02;17.40;55.70
22714;DHT22;11524;50.846;4.326;2023-02-01T03:21:51;17.40;54.60
22714;DHT22;11524;50.846;4.326;2023-02-01T03:24:31;17.40;55.40
22714;DHT22;11524;50.846;4.326;2023-02-01T03:29:48;17.40;55.00
22714;DHT22;11524;50.846;4.326;2023-02-01T03:32:17;17.40;55.30
22714;DHT22;11524;50.846;4.326;2023-02-01T03:34:44;17.40;55.50
22714;DHT22;11524;50.846;4.326;2023-02-01T03:37:11;17.30;55.20
22714;DHT22;11524;50.846;4.326;2023-02-01T03:42:24;17.30;55.50
22714;DHT22;11524;50.846;4.326;2023-02-01T03:45:29;17.30;55.30
22714;DHT22;11524;50.846;4.326;2023-02-01T03:47:59;17.30;54.40
22714;DHT22;11524;50.846;4.326;2023-02-01T03:50:26;17.30;55.40
22714;DHT22;11524;50.846;4.326;2023-02-01T03:53:05;17.30;55.70
22714;DHT22;11524;50.846;4.326;2023-02-01T03:55:32;17.30;55.20
22714;DHT22;11524;50.846;4.326;2023-02-01T03:58:06;17.30;55.60
22714;DHT22;11524;50.846;4.326;2023-02-01T04:00:32;17.30;55.30
22714;DHT22;11524;50.846;4.326;2023-02-01T04:02:58;17.30;55.30
22714;DHT22;11524;50.846;4.326;2023-02-01T04:05:24;17.30;55.30
22714;DHT22;11524;50.846;4.326;2023-02-01T04:07:50;17.20;55.80
22714;DHT22;11524;50.846;4.326;2023-02-01T04:10:16;17.30;55.10
22714;DHT22;11524;50.846;4.326;2023-02-01T04:12:41;17.30;55.30
22714;DHT22;11524;50.846;4.326;2023-02-01T04:15:07;17.20;55.20
22714;DHT22;11524;50.846;4.326;2023-02-01T04:17:33;17.30;55.30
22714;DHT22;11524;50.846;4.326;2023-02-01T04:19:58;17.20;55.20
22714;DHT22;11524;50.846;4.326;2023-02-01T04:22:24;17.20;55.20
22714;DHT22;11524;50.846;4.326;2023-02-01T04:24:50;17.20;55.00
22714;DHT22;11524;50.846;4.326;2023-02-01T04:27:16;17.20;55.10
22714;DHT22;11524;50.846;4.326;2023-02-01T04:29:41;17.20;55.10
22714;DHT22;11524;50.846;4.326;2023-02-01T04:32:07;17.20;55.30
22714;DHT22;11524;50.846;4.326;2023-02-01T04:34:33;17.20;55.30
22714;DHT22;11524;50.846;4.326;2023-02-01T04:36:58;17.20;54.80
22714;DHT22;11524;50.846;4.326;2023-02-01T04:39:24;17.20;55.00
22714;DHT22;11524;50.846;4.326;2023-02-01T04:41:50;17.20;54.80
22714;DHT22;11524;50.846;4.326;2023-02-01T04:44:17;17.20;55.00
22714;DHT22;11524;50.846;4.326;2023-02-01T04:46:44;17.20;55.00
22714;DHT22;11524;50.846;4.326;2023-02-01T04:49:11;17.20;55.00
22714;DHT22;11524;50.846;4.326;2023-02-01T04:51:37;17.20;55.00
22714;DHT22;11524;50.846;4.326;2023-02-01T04:54:03;17.10;55.00
22714;DHT22;11524;50.846;4.326;2023-02-01T04:56:28;17.20;54.90
22714;DHT22;11524;50.846;4.326;2023-02-01T04:58:54;17.20;54.80
22714;DHT22;11524;50.846;4.326;2023-02-01T05:01:23;17.10;54.90
22714;DHT22;11524;50.846;4.326;2023-02-01T05:03:52;17.10;54.70
22714;DHT22;11524;50.846;4.326;2023-02-01T05:06:17;17.10;54.90
22714;DHT22;11524;50.846;4.326;2023-02-01T05:08:43;17.20;54.90
22714;DHT22;11524;50.846;4.326;2023-02-01T05:11:09;17.20;55.20
22714;DHT22;11524;50.846;4.326;2023-02-01T05:13:58;17.10;55.10
22714;DHT22;11524;50.846;4.326;2023-02-01T05:16:24;17.10;54.90
22714;DHT22;11524;50.846;4.326;2023-02-01T05:18:49;17.10;54.80
22714;DHT22;11524;50.846;4.326;2023-02-01T05:21:15;17.10;54.80
22714;DHT22;11524;50.846;4.326;2023-02-01T05:23:41;17.10;54.70
22714;DHT22;11524;50.846;4.326;2023-02-01T05:26:25;17.10;54.60
22714;DHT22;11524;50.846;4.326;2023-02-01T05:28:51;17.10;54.50
22714;DHT22;11524;50.846;4.326;2023-02-01T05:31:16;17.10;54.90
22714;DHT22;11524;50.846;4.326;2023-02-01T05:33:42;17.00;54.60
22714;DHT22;11524;50.846;4.326;2023-02-01T05:36:08;17.00;54.60
22714;DHT22;11524;50.846;4.326;2023-02-01T05:38:33;17.00;54.60
22714;DHT22;11524;50.846;4.326;2023-02-01T05:40:59;17.00;54.70
22714;DHT22;11524;50.846;4.326;2023-02-01T05:43:24;17.00;55.30
22714;DHT22;11524;50.846;4.326;2023-02-01T05:45:52;17.00;54.60
22714;DHT22;11524;50.846;4.326;2023-02-01T05:48:17;17.00;54.50
22714;DHT22;11524;50.846;4.326;2023-02-01T05:50:44;17.00;54.90
22714;DHT22;11524;50.846;4.326;2023-02-01T05:53:10;17.00;54.60
22714;DHT22;11524;50.846;4.326;2023-02-01T05:55:36;16.90;54.80
22714;DHT22;11524;50.846;4.326;2023-02-01T05:58:02;17.00;54.90
22714;DHT22;11524;50.846;4.326;2023-02-01T06:00:27;17.00;54.30
22714;DHT22;11524;50.846;4.326;2023-02-01T06:02:55;17.00;54.70
22714;DHT22;11524;50.846;4.326;2023-02-01T06:05:21;17.00;54.60
22714;DHT22;11524;50.846;4.326;2023-02-01T06:07:49;17.00;55.10
22714;DHT22;11524;50.846;4.326;2023-02-01T06:10:16;16.90;54.90
22714;DHT22;11524;50.846;4.326;2023-02-01T06:12:45;16.90;54.80
22714;DHT22;11524;50.846;4.326;2023-02-01T06:15:12;16.90;55.00
22714;DHT22;11524;50.846;4.326;2023-02-01T06:17:38;17.00;54.90
22714;DHT22;11524;50.846;4.326;2023-02-01T06:20:06;16.90;54.90
22714;DHT22;11524;50.846;4.326;2023-02-01T06:22:32;16.90;54.80
22714;DHT22;11524;50.846;4.326;2023-02-01T06:24:58;16.90;54.70
22714;DHT22;11524;50.846;4.326;2023-02-01T06:27:26;17.10;53.40
22714;DHT22;11524;50.846;4.326;2023-02-01T06:29:52;17.20;53.20
22714;DHT22;11524;50.846;4.326;2023-02-01T06:32:18;17.30;53.50
22714;DHT22;11524;50.846;4.326;2023-02-01T06:34:44;17.40;53.50
22714;DHT22;11524;50.846;4.326;2023-02-01T06:37:12;17.50;52.80
22714;DHT22;11524;50.846;4.326;2023-02-01T06:39:38;17.60;52.80
22714;DHT22;11524;50.846;4.326;2023-02-01T06:42:03;17.70;52.90
22714;DHT22;11524;50.846;4.326;2023-02-01T06:44:29;17.80;52.30
22714;DHT22;11524;50.846;4.326;2023-02-01T06:46:57;17.80;52.10
22714;DHT22;11524;50.846;4.326;2023-02-01T06:49:25;17.90;51.80
22714;DHT22;11524;50.846;4.326;2023-02-01T06:51:50;18.00;52.20
22714;DHT22;11524;50.846;4.326;2023-02-01T06:54:16;18.00;51.30
22714;DHT22;11524;50.846;4.326;2023-02-01T06:56:42;18.10;51.20
22714;DHT22;11524;50.846;4.326;2023-02-01T06:59:10;18.10;50.80
22714;DHT22;11524;50.846;4.326;2023-02-01T07:01:36;18.10;50.70
22714;DHT22;11524;50.846;4.326;2023-02-01T07:04:02;18.10;51.00
22714;DHT22;11524;50.846;4.326;2023-02-01T07:06:28;18.00;50.70
22714;DHT22;11524;50.846;4.326;2023-02-01T07:08:53;17.90;51.90
22714;DHT22;11524;50.846;4.326;2023-02-01T07:11:21;17.80;52.40
22714;DHT22;11524;50.846;4.326;2023-02-01T07:13:47;17.80;53.10
22714;DHT22;11524;50.846;4.326;2023-02-01T07:16:15;17.80;53.20
22714;DHT22;11524;50.846;4.326;2023-02-01T07:18:42;17.80;53.30
22714;DHT22;11524;50.846;4.326;2023-02-01T07:21:10;17.70;53.40
22714;DHT22;11524;50.846;4.326;2023-02-01T07:23:37;17.70;53.30
22714;DHT22;11524;50.846;4.326;2023-02-01T07:26:05;17.70;53.40
22714;DHT22;11524;50.846;4.326;2023-02-01T07:28:41;17.60;53.60
22714;DHT22;11524;50.846;4.326;2023-02-01T07:31:12;17.70;53.20
22714;DHT22;11524;50.846;4.326;2023-02-01T07:33:39;17.70;53.30
22714;DHT22;11524;50.846;4.326;2023-02-01T07:36:06;17.70;52.90
22714;DHT22;11524;50.846;4.326;2023-02-01T07:38:32;17.70;52.60
22714;DHT22;11524;50.846;4.326;2023-02-01T07:40:59;17.60;52.70
22714;DHT22;11524;50.846;4.326;2023-02-01T07:43:26;17.70;52.50
22714;DHT22;11524;50.846;4.326;2023-02-01T07:45:52;17.70;52.30
22714;DHT22;11524;50.846;4.326;2023-02-01T07:48:18;17.90;52.30
22714;DHT22;11524;50.846;4.326;2023-02-01T07:50:44;17.80;52.40
22714;DHT22;11524;50.846;4.326;2023-02-01T07:53:09;17.80;52.00
22714;DHT22;11524;50.846;4.326;2023-02-01T07:55:38;17.80;52.30
22714;DHT22;11524;50.846;4.326;2023-02-01T07:58:03;17.90;52.20
22714;DHT22;11524;50.846;4.326;2023-02-01T08:00:29;17.90;52.70
22714;DHT22;11524;50.846;4.326;2023-02-01T08:03:13;17.90;52.60
22714;DHT22;11524;50.846;4.326;2023-02-01T08:05:38;17.90;50.50
22714;DHT22;11524;50.846;4.326;2023-02-01T08:08:07;17.90;51.70
22714;DHT22;11524;50.846;4.326;2023-02-01T08:10:33;17.90;51.80
22714;DHT22;11524;50.846;4.326;2023-02-01T08:13:01;17.90;52.00
22714;DHT22;11524;50.846;4.326;2023-02-01T08:15:29;18.00;51.90
22714;DHT22;11524;50.846;4.326;2023-02-01T08:17:55;18.00;51.80
22714;DHT22;11524;50.846;4.326;2023-02-01T08:20:23;18.00;51.90
22714;DHT22;11524;50.846;4.326;2023-02-01T08:22:55;18.00;51.70
22714;DHT22;11524;50.846;4.326;2023-02-01T08:25:21;18.10;51.60
22714;DHT22;11524;50.846;4.326;2023-02-01T08:27:47;18.00;51.70
22714;DHT22;11524;50.846;4.326;2023-02-01T08:30:12;18.10;51.80
22714;DHT22;11524;50.846;4.326;2023-02-01T08:32:41;18.00;51.50
22714;DHT22;11524;50.846;4.326;2023-02-01T08:35:07;18.10;51.30
22714;DHT22;11524;50.846;4.326;2023-02-01T08:37:33;18.10;51.50
22714;DHT22;11524;50.846;4.326;2023-02-01T08:39:58;18.10;51.40
22714;DHT22;11524;50.846;4.326;2023-02-01T08:42:24;18.10;51.40
22714;DHT22;11524;50.846;4.326;2023-02-01T08:45:11;18.10;51.20
22714;DHT22;11524;50.846;4.326;2023-02-01T08:47:37;18.10;51.20
22714;DHT22;11524;50.846;4.326;2023-02-01T08:50:03;18.10;51.20
22714;DHT22;11524;50.846;4.326;2023-02-01T08:52:28;18.10;51.30
22714;DHT22;11524;50.846;4.326;2023-02-01T08:54:56;18.10;51.20
22714;DHT22;11524;50.846;4.326;2023-02-01T08:57:21;18.20;51.10
22714;DHT22;11524;50.846;4.326;2023-02-01T08:59:47;18.20;51.30
22714;DHT22;11524;50.846;4.326;2023-02-01T09:02:14;18.20;51.40
22714;DHT22;11524;50.846;4.326;2023-02-01T09:04:40;18.10;51.20
22714;DHT22;11524;50.846;4.326;2023-02-01T09:07:06;18.20;51.20
22714;DHT22;11524;50.846;4.326;2023-02-01T09:09:32;18.20;51.90
22714;DHT22;11524;50.846;4.326;2023-02-01T09:11:58;18.20;51.10
22714;DHT22;11524;50.846;4.326;2023-02-01T09:14:23;18.10;50.90
22714;DHT22;11524;50.846;4.326;2023-02-01T09:16:49;18.20;51.20
22714;DHT22;11524;50.846;4.326;2023-02-01T09:19:14;18.10;51.30
22714;DHT22;11524;50.846;4.326;2023-02-01T09:21:40;18.10;51.40
22714;DHT22;11524;50.846;4.326;2023-02-01T09:24:06;18.10;51.10
22714;DHT22;11524;50.846;4.326;2023-02-01T09:26:32;18.10;51.20
22714;DHT22;11524;50.846;4.326;2023-02-01T09:28:59;18.20;51.50
22714;DHT22;11524;50.846;4.326;2023-02-01T09:31:27;18.20;51.40
22714;DHT22;11524;50.846;4.326;2023-02-01T09:33:53;18.10;51.60
22714;DHT22;11524;50.846;4.326;2023-02-01T09:36:18;18.20;51.80
22714;DHT22;11524;50.846;4.326;2023-02-01T09:38:45;18.20;51.40
22714;DHT22;11524;50.846;4.326;2023-02-01T09:44:24;18.30;51.20
22714;DHT22;11524;50.846;4.326;2023-02-01T09:46:45;18.30;51.20
22714;DHT22;11524;50.846;4.326;2023-02-01T09:49:26;18.30;51.00
22714;DHT22;11524;50.846;4.326;2023-02-01T09:51:54;18.30;51.10
22714;DHT22;11524;50.846;4.326;2023-02-01T09:54:33;18.30;51.20
22714;DHT22;11524;50.846;4.326;2023-02-01T09:57:13;18.30;51.30
22714;DHT22;11524;50.846;4.326;2023-02-01T09:59:46;18.30;51.40
22714;DHT22;11524;50.846;4.326;2023-02-01T10:02:23;18.30;51.30
22714;DHT22;11524;50.846;4.326;2023-02-01T10:04:49;18.30;51.50
22714;DHT22;11524;50.846;4.326;2023-02-01T10:07:45;18.30;51.30
22714;DHT22;11524;50.846;4.326;2023-02-01T10:10:23;18.30;51.50
22714;DHT22;11524;50.846;4.326;2023-02-01T10:18:53;18.30;51.50
22714;DHT22;11524;50.846;4.326;2023-02-01T10:26:57;18.30;51.60
22714;DHT22;11524;50.846;4.326;2023-02-01T10:29:26;18.30;51.30
22714;DHT22;11524;50.846;4.326;2023-02-01T10:32:00;18.40;51.40
22714;DHT22;11524;50.846;4.326;2023-02-01T10:34:33;18.40;51.60
22714;DHT22;11524;50.846;4.326;2023-02-01T10:39:46;18.40;50.40
22714;DHT22;11524;50.846;4.326;2023-02-01T10:42:13;18.40;51.10
22714;DHT22;11524;50.846;4.326;2023-02-01T10:44:42;18.40;51.30
22714;DHT22;11524;50.846;4.326;2023-02-01T10:47:10;18.40;51.40
22714;DHT22;11524;50.846;4.326;2023-02-01T10:49:55;18.30;51.50
22714;DHT22;11524;50.846;4.326;2023-02-01T10:54:56;18.40;51.10
22714;DHT22;11524;50.846;4.326;2023-02-01T10:57:42;18.30;51.20
22714;DHT22;11524;50.846;4.326;2023-02-01T11:00:20;18.40;51.20
22714;DHT22;11524;50.846;4.326;2023-02-01T11:02:46;18.40;51.20
22714;DHT22;11524;50.846;4.326;2023-02-01T11:05:11;18.40;51.20
22714;DHT22;11524;50.846;4.326;2023-02-01T11:07:46;18.40;51.10
22714;DHT22;11524;50.846;4.326;2023-02-01T11:10:38;18.40;50.90
22714;DHT22;11524;50.846;4.326;2023-02-01T11:13:08;18.40;50.60
22714;DHT22;11524;50.846;4.326;2023-02-01T11:15:37;18.40;50.90
22714;DHT22;11524;50.846;4.326;2023-02-01T11:18:17;18.50;50.90
22714;DHT22;11524;50.846;4.326;2023-02-01T11:20:44;18.40;50.80
22714;DHT22;11524;50.846;4.326;2023-02-01T11:23:18;18.50;50.70
22714;DHT22;11524;50.846;4.326;2023-02-01T11:28:29;18.50;50.70
22714;DHT22;11524;50.846;4.326;2023-02-01T11:31:06;18.50;50.60
22714;DHT22;11524;50.846;4.326;2023-02-01T11:33:35;18.50;50.40
22714;DHT22;11524;50.846;4.326;2023-02-01T11:36:14;18.50;50.60
22714;DHT22;11524;50.846;4.326;2023-02-01T11:39:07;18.50;50.60
22714;DHT22;11524;50.846;4.326;2023-02-01T11:41:31;18.50;50.60
22714;DHT22;11524;50.846;4.326;2023-02-01T11:44:00;18.60;50.50
22714;DHT22;11524;50.846;4.326;2023-02-01T11:46:32;18.60;50.60
22714;DHT22;11524;50.846;4.326;2023-02-01T11:49:23;18.60;50.70
22714;DHT22;11524;50.846;4.326;2023-02-01T11:54:42;18.60;50.60
22714;DHT22;11524;50.846;4.326;2023-02-01T11:57:29;18.60;51.00
22714;DHT22;11524;50.846;4.326;2023-02-01T12:00:16;18.60;50.40
22714;DHT22;11524;50.846;4.326;2023-02-01T12:02:59;18.60;50.10
22714;DHT22;11524;50.846;4.326;2023-02-01T12:08:22;18.60;50.40
22714;DHT22;11524;50.846;4.326;2023-02-01T12:16:31;18.70;50.20
22714;DHT22;11524;50.846;4.326;2023-02-01T12:24:34;18.80;50.40
22714;DHT22;11524;50.846;4.326;2023-02-01T12:27:40;18.90;50.90
22714;DHT22;11524;50.846;4.326;2023-02-01T12:30:38;18.90;50.30
22714;DHT22;11524;50.846;4.326;2023-02-01T12:39:02;19.00;49.70
22714;DHT22;11524;50.846;4.326;2023-02-01T12:41:57;19.00;49.70
22714;DHT22;11524;50.846;4.326;2023-02-01T12:47:11;19.00;49.60
22714;DHT22;11524;50.846;4.326;2023-02-01T12:52:46;19.00;49.50
22714;DHT22;11524;50.846;4.326;2023-02-01T12:55:35;19.10;49.40
22714;DHT22;11524;50.846;4.326;2023-02-01T13:00:45;19.10;49.30
22714;DHT22;11524;50.846;4.326;2023-02-01T13:03:38;19.10;49.20
22714;DHT22;11524;50.846;4.326;2023-02-01T13:06:38;19.10;49.20
22714;DHT22;11524;50.846;4.326;2023-02-01T13:12:33;19.20;48.90
22714;DHT22;11524;50.846;4.326;2023-02-01T13:18:16;19.20;49.20
22714;DHT22;11524;50.846;4.326;2023-02-01T13:23:19;19.20;49.10
22714;DHT22;11524;50.846;4.326;2023-02-01T13:25:49;19.20;49.30
22714;DHT22;11524;50.846;4.326;2023-02-01T13:31:09;19.20;49.20
22714;DHT22;11524;50.846;4.326;2023-02-01T13:46:59;19.30;50.50
22714;DHT22;11524;50.846;4.326;2023-02-01T13:49:28;19.30;52.60
22714;DHT22;11524;50.846;4.326;2023-02-01T13:51:57;19.40;47.20
22714;DHT22;11524;50.846;4.326;2023-02-01T13:54:33;19.50;47.80
22714;DHT22;11524;50.846;4.326;2023-02-01T13:57:04;19.30;49.90
22714;DHT22;11524;50.846;4.326;2023-02-01T14:02:37;19.10;49.30
22714;DHT22;11524;50.846;4.326;2023-02-01T14:05:03;19.10;50.20
22714;DHT22;11524;50.846;4.326;2023-02-01T14:07:30;19.00;50.60
22714;DHT22;11524;50.846;4.326;2023-02-01T14:09:56;18.90;50.80
22714;DHT22;11524;50.846;4.326;2023-02-01T14:12:45;18.90;51.10
22714;DHT22;11524;50.846;4.326;2023-02-01T14:15:23;18.80;51.30
22714;DHT22;11524;50.846;4.326;2023-02-01T14:17:50;18.80;51.00
22714;DHT22;11524;50.846;4.326;2023-02-01T14:20:42;18.80;51.80
22714;DHT22;11524;50.846;4.326;2023-02-01T14:23:15;18.80;51.50
22714;DHT22;11524;50.846;4.326;2023-02-01T14:25:42;18.70;51.70
22714;DHT22;11524;50.846;4.326;2023-02-01T14:28:12;18.70;51.60
22714;DHT22;11524;50.846;4.326;2023-02-01T14:30:47;18.70;51.50
22714;DHT22;11524;50.846;4.326;2023-02-01T14:33:27;18.70;52.20
22714;DHT22;11524;50.846;4.326;2023-02-01T14:36:06;18.60;51.60
22714;DHT22;11524;50.846;4.326;2023-02-01T14:38:34;18.60;51.30
22714;DHT22;11524;50.846;4.326;2023-02-01T14:41:29;18.60;51.80
22714;DHT22;11524;50.846;4.326;2023-02-01T14:47:31;18.60;51.90
22714;DHT22;11524;50.846;4.326;2023-02-01T14:49:36;18.50;51.60
22714;DHT22;11524;50.846;4.326;2023-02-01T14:52:09;18.50;51.60
22714;DHT22;11524;50.846;4.326;2023-02-01T14:54:39;18.50;51.00
22714;DHT22;11524;50.846;4.326;2023-02-01T14:57:08;18.50;51.60
22714;DHT22;11524;50.846;4.326;2023-02-01T14:59:36;18.50;52.10
22714;DHT22;11524;50.846;4.326;2023-02-01T15:02:02;18.40;52.00
22714;DHT22;11524;50.846;4.326;2023-02-01T15:04:42;18.40;52.30
22714;DHT22;11524;50.846;4.326;2023-02-01T15:07:12;18.40;52.00
22714;DHT22;11524;50.846;4.326;2023-02-01T15:09:47;18.30;52.60
22714;DHT22;11524;50.846;4.326;2023-02-01T15:15:25;18.40;50.50
22714;DHT22;11524;50.846;4.326;2023-02-01T15:20:28;18.80;49.20
22714;DHT22;11524;50.846;4.326;2023-02-01T15:22:59;18.90;49.30
22714;DHT22;11524;50.846;4.326;2023-02-01T15:25:26;18.90;48.80
22714;DHT22;11524;50.846;4.326;2023-02-01T15:27:52;19.00;48.30
22714;DHT22;11524;50.846;4.326;2023-02-01T15:30:27;19.10;48.40
22714;DHT22;11524;50.846;4.326;2023-02-01T15:33:05;19.10;48.70
22714;DHT22;11524;50.846;4.326;2023-02-01T15:35:37;19.10;48.60
22714;DHT22;11524;50.846;4.326;2023-02-01T15:40:55;19.10;48.60
22714;DHT22;11524;50.846;4.326;2023-02-01T15:43:21;19.10;48.60
22714;DHT22;11524;50.846;4.326;2023-02-01T15:45:48;19.10;48.50
22714;DHT22;11524;50.846;4.326;2023-02-01T15:48:25;19.10;48.50
22714;DHT22;11524;50.846;4.326;2023-02-01T15:50:52;19.10;48.70
22714;DHT22;11524;50.846;4.326;2023-02-01T15:53:23;19.10;48.30
22714;DHT22;11524;50.846;4.326;2023-02-01T15:55:53;19.20;48.50
22714;DHT22;11524;50.846;4.326;2023-02-01T15:58:21;19.20;48.80
22714;DHT22;11524;50.846;4.326;2023-02-01T16:00:51;19.20;48.70
22714;DHT22;11524;50.846;4.326;2023-02-01T16:03:36;19.20;48.90
22714;DHT22;11524;50.846;4.326;2023-02-01T16:06:05;19.20;49.10
22714;DHT22;11524;50.846;4.326;2023-02-01T16:08:31;19.20;48.70
22714;DHT22;11524;50.846;4.326;2023-02-01T16:13:48;19.10;48.60
22714;DHT22;11524;50.846;4.326;2023-02-01T16:16:14;19.10;48.80
22714;DHT22;11524;50.846;4.326;2023-02-01T16:18:41;19.10;48.60
22714;DHT22;11524;50.846;4.326;2023-02-01T16:21:07;19.10;48.60
22714;DHT22;11524;50.846;4.326;2023-02-01T16:23:34;19.20;48.60
22714;DHT22;11524;50.846;4.326;2023-02-01T16:26:01;19.20;48.90
22714;DHT22;11524;50.846;4.326;2023-02-01T16:28:26;19.20;48.30
22714;DHT22;11524;50.846;4.326;2023-02-01T16:30:52;19.00;49.40
22714;DHT22;11524;50.846;4.326;2023-02-01T16:33:19;18.90;50.20
22714;DHT22;11524;50.846;4.326;2023-02-01T16:35:47;19.00;50.30
22714;DHT22;11524;50.846;4.326;2023-02-01T16:38:15;19.10;50.10
22714;DHT22;11524;50.846;4.326;2023-02-01T16:40:44;19.10;50.30
22714;DHT22;11524;50.846;4.326;2023-02-01T16:43:19;19.20;50.50
22714;DHT22;11524;50.846;4.326;2023-02-01T16:45:47;19.20;50.20
22714;DHT22;11524;50.846;4.326;2023-02-01T16:48:34;19.30;49.90
22714;DHT22;11524;50.846;4.326;2023-02-01T16:51:02;19.40;49.80
22714;DHT22;11524;50.846;4.326;2023-02-01T16:53:30;19.40;50.20
22714;DHT22;11524;50.846;4.326;2023-02-01T16:55:56;19.50;49.70
22714;DHT22;11524;50.846;4.326;2023-02-01T16:58:26;19.50;49.20
22714;DHT22;11524;50.846;4.326;2023-02-01T17:00:52;19.60;49.50
22714;DHT22;11524;50.846;4.326;2023-02-01T17:03:19;19.60;48.90
22714;DHT22;11524;50.846;4.326;2023-02-01T17:05:53;19.60;49.00
22714;DHT22;11524;50.846;4.326;2023-02-01T17:08:27;19.50;48.60
22714;DHT22;11524;50.846;4.326;2023-02-01T17:10:53;19.50;48.50
22714;DHT22;11524;50.846;4.326;2023-02-01T17:13:19;19.40;48.30
22714;DHT22;11524;50.846;4.326;2023-02-01T17:16:01;19.40;48.20
22714;DHT22;11524;50.846;4.326;2023-02-01T17:18:29;19.30;48.20
22714;DHT22;11524;50.846;4.326;2023-02-01T17:20:59;19.30;48.50
22714;DHT22;11524;50.846;4.326;2023-02-01T17:23:26;19.30;48.40
22714;DHT22;11524;50.846;4.326;2023-02-01T17:25:53;19.20;48.40
22714;DHT22;11524;50.846;4.326;2023-02-01T17:28:19;19.20;48.50
22714;DHT22;11524;50.846;4.326;2023-02-01T17:30:45;19.10;48.80
22714;DHT22;11524;50.846;4.326;2023-02-01T17:33:25;19.10;48.70
22714;DHT22;11524;50.846;4.326;2023-02-01T17:35:53;19.10;49.10
22714;DHT22;11524;50.846;4.326;2023-02-01T17:38:19;19.10;48.80
22714;DHT22;11524;50.846;4.326;2023-02-01T17:40:44;19.00;49.00
22714;DHT22;11524;50.846;4.326;2023-02-01T17:43:15;19.00;49.50
22714;DHT22;11524;50.846;4.326;2023-02-01T17:45:48;19.00;49.00
22714;DHT22;11524;50.846;4.326;2023-02-01T17:48:18;19.00;49.20
22714;DHT22;11524;50.846;4.326;2023-02-01T17:50:46;19.00;49.00
22714;DHT22;11524;50.846;4.326;2023-02-01T17:53:12;19.00;49.20
22714;DHT22;11524;50.846;4.326;2023-02-01T17:55:42;19.00;49.10
22714;DHT22;11524;50.846;4.326;2023-02-01T17:58:10;18.90;49.10